Time;durP1;ratioP1;P1;durP2;ratioP2;P2;SDS_P1;SDS_P2;PMS_P1;PMS_P2;Temp;Humidity;BMP_temperature;BMP_pressure;BME280_temperature;BME280_humidity;BME280_pressure;Samples;Min_cycle;Max_cycle;Signal;HPM_P1;HPM_P2
2022/09/11 00:01:14;;;;;;;7.03;2.80;;;;;;;;;;3392368;42;20591;-62
2022/09/11 00:03:41;;;;;;;7.55;2.90;;;;;;;;;;3384611;42;20098;-62
2022/09/11 00:06:11;;;;;;;8.75;3.05;;;;;;;;;;3394100;42;20083;-62
2022/09/11 00:08:38;;;;;;;6.88;3.05;;;;;;;;;;3385670;42;20113;-64
2022/09/11 00:11:04;;;;;;;7.32;2.92;;;;;;;;;;3382862;42;20161;-64
2022/09/11 00:13:30;;;;;;;6.40;2.53;;;;;;;;;;3391351;42;20087;-61
2022/09/11 00:15:56;;;;;;;10.15;2.90;;;;;;;;;;3384409;42;20558;-63
2022/09/11 00:18:22;;;;;;;7.35;2.95;;;;;;;;;;3393449;42;20154;-63
2022/09/11 00:20:50;;;;;;;10.02;2.90;;;;;;;;;;3393228;42;20078;-62
2022/09/11 00:23:17;;;;;;;7.47;2.77;;;;;;;;;;3371492;42;20157;-63
2022/09/11 00:25:45;;;;;;;7.53;3.00;;;;;;;;;;3383208;42;20102;-65
2022/09/11 00:28:16;;;;;;;7.25;2.67;;;;;;;;;;3391569;42;20166;-68
2022/09/11 00:30:45;;;;;;;6.38;2.50;;;;;;;;;;3394450;42;20605;-63
2022/09/11 00:33:11;;;;;;;8.38;2.65;;;;;;;;;;3393982;42;20564;-63
2022/09/11 00:35:38;;;;;;;7.57;2.80;;;;;;;;;;3382715;42;20094;-61
2022/09/11 00:38:04;;;;;;;7.50;3.10;;;;;;;;;;3391129;42;20129;-62
2022/09/11 00:40:30;;;;;;;7.80;2.90;;;;;;;;;;3393127;42;20167;-63
2022/09/11 00:42:57;;;;;;;7.57;3.10;;;;;;;;;;3393083;42;20091;-63
2022/09/11 00:45:24;;;;;;;7.07;3.05;;;;;;;;;;3392900;42;20098;-63
2022/09/11 00:47:51;;;;;;;7.27;3.00;;;;;;;;;;3374115;42;20584;-63
2022/09/11 00:50:20;;;;;;;8.00;2.63;;;;;;;;;;3378478;42;20579;-63
2022/09/11 00:53:10;;;;;;;8.98;2.70;;;;;;;;;;3384202;42;20519;-63
2022/09/11 00:55:36;;;;;;;12.27;2.92;;;;;;;;;;3380436;42;20079;-62
2022/09/11 00:58:04;;;;;;;8.77;2.90;;;;;;;;;;3383806;42;20141;-63
2022/09/11 01:00:30;;;;;;;8.47;3.13;;;;;;;;;;3374952;42;20137;-62
2022/09/11 01:02:56;;;;;;;6.63;2.70;;;;;;;;;;3391870;42;20087;-63
2022/09/11 01:05:23;;;;;;;6.35;2.30;;;;;;;;;;3382462;42;20158;-61
2022/09/11 01:07:53;;;;;;;7.95;2.80;;;;;;;;;;3384018;42;20092;-63
2022/09/11 01:10:23;;;;;;;8.73;2.80;;;;;;;;;;3383782;42;20162;-62
2022/09/11 01:13:40;;;;;;;7.22;2.65;;;;;;;;;;3373783;42;20091;-64
2022/09/11 01:16:48;;;;;;;6.82;2.55;;;;;;;;;;3372327;42;20722;-62
2022/09/11 01:19:36;;;;;;;6.53;2.53;;;;;;;;;;3358612;42;20143;-62
2022/09/11 01:22:21;;;;;;;6.63;2.70;;;;;;;;;;3359767;42;20091;-63
2022/09/11 01:25:04;;;;;;;6.83;2.40;;;;;;;;;;3385781;42;20094;-62
2022/09/11 01:27:40;;;;;;;7.35;3.55;;;;;;;;;;3390394;42;20097;-62
2022/09/11 01:30:11;;;;;;;7.10;2.60;;;;;;;;;;3383718;42;20100;-63
2022/09/11 01:32:43;;;;;;;6.13;2.30;;;;;;;;;;3376635;42;20496;-63
2022/09/11 01:35:17;;;;;;;6.85;2.72;;;;;;;;;;3393886;42;20089;-62
2022/09/11 01:37:56;;;;;;;8.10;2.60;;;;;;;;;;3383734;42;20093;-63
2022/09/11 01:40:35;;;;;;;8.40;2.80;;;;;;;;;;3383661;42;20154;-62
2022/09/11 01:43:05;;;;;;;8.15;3.00;;;;;;;;;;3380485;42;20098;-64
2022/09/11 01:45:33;;;;;;;7.85;2.60;;;;;;;;;;3374958;42;20086;-63
2022/09/11 01:47:59;;;;;;;7.88;2.78;;;;;;;;;;3381379;42;20164;-63
2022/09/11 01:50:25;;;;;;;7.90;2.67;;;;;;;;;;3381038;42;20090;-63
2022/09/11 01:52:59;;;;;;;8.35;2.85;;;;;;;;;;3374856;42;20495;-63
2022/09/11 01:55:49;;;;;;;8.82;2.63;;;;;;;;;;3382279;42;20567;-63
2022/09/11 01:58:19;;;;;;;7.15;2.88;;;;;;;;;;3385008;42;20116;-64
2022/09/11 02:00:48;;;;;;;7.13;2.70;;;;;;;;;;3381967;42;20660;-61
2022/09/11 02:03:30;;;;;;;8.27;2.70;;;;;;;;;;3380086;42;20087;-63
2022/09/11 02:05:58;;;;;;;6.95;2.60;;;;;;;;;;3370845;42;20129;-63
2022/09/11 02:08:34;;;;;;;6.57;2.45;;;;;;;;;;3377476;42;20089;-63
2022/09/11 02:11:05;;;;;;;9.43;2.67;;;;;;;;;;3384970;42;20092;-63
2022/09/11 02:13:43;;;;;;;6.78;2.60;;;;;;;;;;3382749;42;20158;-63
2022/09/11 02:16:38;;;;;;;6.47;2.50;;;;;;;;;;3383760;42;20125;-62
2022/09/11 02:19:05;;;;;;;7.47;2.70;;;;;;;;;;3392912;42;20086;-62
2022/09/11 02:21:31;;;;;;;8.68;2.70;;;;;;;;;;3393084;42;20091;-63
2022/09/11 02:23:57;;;;;;;7.13;2.80;;;;;;;;;;3376357;42;20136;-63
2022/09/11 02:26:24;;;;;;;7.75;3.20;;;;;;;;;;3382633;42;20240;-62
2022/09/11 02:28:51;;;;;;;7.63;2.77;;;;;;;;;;3383266;42;20553;-63
2022/09/11 02:31:18;;;;;;;7.00;2.50;;;;;;;;;;3381878;42;20326;-64
2022/09/11 02:33:45;;;;;;;7.43;2.50;;;;;;;;;;3382529;42;20075;-62
2022/09/11 02:36:39;;;;;;;8.07;2.83;;;;;;;;;;3382671;42;20091;-63
2022/09/11 02:39:20;;;;;;;7.00;3.00;;;;;;;;;;3392523;42;20098;-63
2022/09/11 02:41:55;;;;;;;8.93;2.90;;;;;;;;;;3384327;42;20120;-63
2022/09/11 02:44:24;;;;;;;7.88;2.80;;;;;;;;;;3392343;42;20141;-63
2022/09/11 02:47:15;;;;;;;8.75;3.03;;;;;;;;;;3383342;42;20083;-62
2022/09/11 02:50:03;;;;;;;7.75;2.58;;;;;;;;;;3392542;42;20499;-63
2022/09/11 02:53:01;;;;;;;8.25;2.53;;;;;;;;;;3392478;42;20078;-63
2022/09/11 02:55:30;;;;;;;7.83;2.40;;;;;;;;;;3386220;42;20125;-62
2022/09/11 02:58:01;;;;;;;6.65;2.58;;;;;;;;;;3395024;42;20169;-64
2022/09/11 03:00:27;;;;;;;6.32;2.50;;;;;;;;;;3376937;42;20121;-63
2022/09/11 03:02:53;;;;;;;6.80;2.80;;;;;;;;;;3385076;42;20090;-64
2022/09/11 03:05:20;;;;;;;6.53;2.33;;;;;;;;;;3383334;42;20108;-64
2022/09/11 03:07:46;;;;;;;7.88;2.72;;;;;;;;;;3382264;42;20149;-63
2022/09/11 03:10:12;;;;;;;8.65;3.72;;;;;;;;;;3385133;42;20284;-64
2022/09/11 03:12:38;;;;;;;9.13;3.40;;;;;;;;;;3393646;42;20144;-64
2022/09/11 03:15:05;;;;;;;9.68;4.30;;;;;;;;;;3394223;42;20488;-64
2022/09/11 03:17:32;;;;;;;9.67;4.20;;;;;;;;;;3394018;42;20559;-64
2022/09/11 03:19:58;;;;;;;9.82;4.28;;;;;;;;;;3384572;42;20558;-63
2022/09/11 03:22:24;;;;;;;11.05;4.68;;;;;;;;;;3394077;42;20584;-64
2022/09/11 03:24:50;;;;;;;12.02;4.78;;;;;;;;;;3393888;42;20141;-63
2022/09/11 03:27:16;;;;;;;10.03;4.20;;;;;;;;;;3393881;42;20074;-62
2022/09/11 03:29:43;;;;;;;11.68;4.00;;;;;;;;;;3393577;42;20206;-64
2022/09/11 03:32:09;;;;;;;9.90;4.35;;;;;;;;;;3393863;42;20090;-62
2022/09/11 03:34:35;;;;;;;8.65;3.92;;;;;;;;;;3393710;42;20578;-64
2022/09/11 03:37:01;;;;;;;9.93;4.05;;;;;;;;;;3393669;42;20094;-63
2022/09/11 03:39:27;;;;;;;9.13;4.00;;;;;;;;;;3393780;42;20090;-64
2022/09/11 03:41:53;;;;;;;9.20;3.88;;;;;;;;;;3384719;42;20137;-63
2022/09/11 03:44:20;;;;;;;7.93;3.42;;;;;;;;;;3393697;42;20108;-63
2022/09/11 03:46:46;;;;;;;9.48;3.80;;;;;;;;;;3383260;42;20681;-62
2022/09/11 03:49:12;;;;;;;10.23;3.73;;;;;;;;;;3391448;42;20099;-63
2022/09/11 03:51:38;;;;;;;7.90;3.50;;;;;;;;;;3393474;42;20550;-63
2022/09/11 03:54:04;;;;;;;10.60;3.70;;;;;;;;;;3393591;42;20078;-63
2022/09/11 03:56:30;;;;;;;8.35;3.60;;;;;;;;;;3393323;42;20082;-63
2022/09/11 03:58:58;;;;;;;9.10;3.30;;;;;;;;;;3393657;42;20556;-63
2022/09/11 04:01:25;;;;;;;9.30;3.23;;;;;;;;;;3394009;42;20491;-63
2022/09/11 04:03:51;;;;;;;9.18;3.80;;;;;;;;;;3393290;42;20106;-64
2022/09/11 04:06:17;;;;;;;7.65;3.35;;;;;;;;;;3384525;42;20086;-62
2022/09/11 04:08:43;;;;;;;8.82;3.60;;;;;;;;;;3383162;42;20091;-63
2022/09/11 04:11:10;;;;;;;9.37;3.20;;;;;;;;;;3390950;42;20225;-63
2022/09/11 04:13:37;;;;;;;11.07;4.10;;;;;;;;;;3383744;42;20558;-63
2022/09/11 04:16:08;;;;;;;9.52;3.80;;;;;;;;;;3393694;42;20137;-63
2022/09/11 04:18:36;;;;;;;12.25;3.33;;;;;;;;;;3393165;42;20620;-63
2022/09/11 04:21:05;;;;;;;10.55;4.18;;;;;;;;;;3393475;42;20141;-63
2022/09/11 04:23:31;;;;;;;8.03;3.20;;;;;;;;;;3393537;42;20105;-64
2022/09/11 04:25:57;;;;;;;6.82;2.72;;;;;;;;;;3377248;42;20078;-62
2022/09/11 04:28:23;;;;;;;7.18;2.67;;;;;;;;;;3393626;42;20196;-62
2022/09/11 04:30:49;;;;;;;7.43;3.10;;;;;;;;;;3384396;42;20078;-63
2022/09/11 04:33:15;;;;;;;7.70;3.13;;;;;;;;;;3393056;42;20495;-62
2022/09/11 04:35:42;;;;;;;7.60;3.13;;;;;;;;;;3393203;42;20552;-62
2022/09/11 04:38:08;;;;;;;7.85;3.05;;;;;;;;;;3384306;42;20094;-63
2022/09/11 04:40:34;;;;;;;8.48;3.20;;;;;;;;;;3392817;42;20098;-62
2022/09/11 04:43:00;;;;;;;7.83;2.80;;;;;;;;;;3392713;42;20095;-62
2022/09/11 04:45:31;;;;;;;7.47;3.20;;;;;;;;;;3383853;42;20217;-64
2022/09/11 04:48:00;;;;;;;7.40;3.20;;;;;;;;;;3393089;42;20216;-62
2022/09/11 04:50:27;;;;;;;8.23;3.25;;;;;;;;;;3393138;42;20579;-63
2022/09/11 04:52:54;;;;;;;7.07;2.78;;;;;;;;;;3393072;42;20142;-63
2022/09/11 04:55:20;;;;;;;8.77;3.00;;;;;;;;;;3392993;42;20092;-63
2022/09/11 04:57:46;;;;;;;8.13;2.90;;;;;;;;;;3392618;42;20079;-62
2022/09/11 05:00:12;;;;;;;7.32;3.10;;;;;;;;;;3382422;42;20090;-64
2022/09/11 05:02:39;;;;;;;7.05;2.80;;;;;;;;;;3382041;42;20150;-63
2022/09/11 05:05:07;;;;;;;7.50;3.20;;;;;;;;;;3392924;42;20112;-63
2022/09/11 05:07:34;;;;;;;8.23;2.93;;;;;;;;;;3383961;42;20541;-62
2022/09/11 05:10:02;;;;;;;9.70;2.88;;;;;;;;;;3392799;42;20113;-62
2022/09/11 05:12:30;;;;;;;6.72;2.75;;;;;;;;;;3388915;42;20116;-63
2022/09/11 05:14:56;;;;;;;7.05;2.72;;;;;;;;;;3392585;42;20553;-62
2022/09/11 05:17:22;;;;;;;8.75;3.17;;;;;;;;;;3384014;42;20150;-62
2022/09/11 05:19:48;;;;;;;7.83;3.20;;;;;;;;;;3376651;42;20159;-63
2022/09/11 05:22:14;;;;;;;10.75;3.20;;;;;;;;;;3393517;42;20136;-65
2022/09/11 05:24:40;;;;;;;7.35;2.97;;;;;;;;;;3382488;42;20083;-66
2022/09/11 05:27:08;;;;;;;6.70;2.90;;;;;;;;;;3391503;42;20086;-63
2022/09/11 05:29:34;;;;;;;6.70;2.83;;;;;;;;;;3384417;42;20110;-63
2022/09/11 05:32:01;;;;;;;7.95;2.60;;;;;;;;;;3383275;42;20101;-63
2022/09/11 05:34:27;;;;;;;7.22;2.72;;;;;;;;;;3392782;42;20078;-62
2022/09/11 05:36:57;;;;;;;10.02;2.95;;;;;;;;;;3383870;42;20500;-62
2022/09/11 05:39:23;;;;;;;6.97;2.78;;;;;;;;;;3392792;42;20148;-62
2022/09/11 05:41:50;;;;;;;6.60;2.60;;;;;;;;;;3392991;42;20098;-62
2022/09/11 05:44:16;;;;;;;6.53;2.53;;;;;;;;;;3382217;42;20184;-62
2022/09/11 05:46:43;;;;;;;7.60;2.85;;;;;;;;;;3390828;42;20572;-61
2022/09/11 05:49:08;;;;;;;7.28;2.80;;;;;;;;;;3384314;42;20134;-62
2022/09/11 05:51:36;;;;;;;7.32;2.80;;;;;;;;;;3392535;42;20174;-63
2022/09/11 05:54:03;;;;;;;8.23;2.90;;;;;;;;;;3393065;42;20090;-63
2022/09/11 05:56:29;;;;;;;6.20;2.78;;;;;;;;;;3392680;42;20090;-64
2022/09/11 05:58:55;;;;;;;9.20;2.80;;;;;;;;;;3392471;42;20109;-65
2022/09/11 06:01:22;;;;;;;7.88;2.60;;;;;;;;;;3382047;42;20098;-62
2022/09/11 06:03:48;;;;;;;9.50;3.08;;;;;;;;;;3374930;42;20565;-64
2022/09/11 06:06:15;;;;;;;10.03;2.63;;;;;;;;;;3392256;42;20079;-65
2022/09/11 06:08:42;;;;;;;6.03;2.55;;;;;;;;;;3392162;42;20508;-66
2022/09/11 06:11:09;;;;;;;5.95;1.90;;;;;;;;;;3384196;42;20572;-63
2022/09/11 06:13:40;;;;;;;5.15;1.27;;;;;;;;;;3386681;42;20094;-65
2022/09/11 06:16:13;;;;;;;6.57;1.52;;;;;;;;;;3383018;42;20541;-64
2022/09/11 06:18:39;;;;;;;6.27;1.70;;;;;;;;;;3380467;42;20090;-63
2022/09/11 06:21:07;;;;;;;4.30;1.38;;;;;;;;;;3380425;42;20194;-65
2022/09/11 06:23:34;;;;;;;5.03;1.80;;;;;;;;;;3381492;42;20122;-63
2022/09/11 06:26:04;;;;;;;5.43;1.80;;;;;;;;;;3382231;42;20087;-64
2022/09/11 06:28:30;;;;;;;6.18;1.70;;;;;;;;;;3381758;42;20647;-65
2022/09/11 06:30:57;;;;;;;4.53;1.37;;;;;;;;;;3383693;42;20593;-65
2022/09/11 06:33:23;;;;;;;4.45;1.48;;;;;;;;;;3384740;42;20106;-62
2022/09/11 06:35:59;;;;;;;4.10;1.17;;;;;;;;;;3391659;42;20098;-63
2022/09/11 06:38:25;;;;;;;3.65;1.00;;;;;;;;;;3382008;42;20108;-64
2022/09/11 06:40:52;;;;;;;4.68;1.00;;;;;;;;;;3377238;42;20128;-64
2022/09/11 06:43:18;;;;;;;4.10;1.17;;;;;;;;;;3382129;42;20540;-63
2022/09/11 06:45:47;;;;;;;4.30;1.23;;;;;;;;;;3373233;42;20125;-63
2022/09/11 06:48:16;;;;;;;4.13;1.20;;;;;;;;;;3386575;42;20086;-62
2022/09/11 06:50:42;;;;;;;3.90;1.20;;;;;;;;;;3388146;42;20100;-61
2022/09/11 06:53:08;;;;;;;4.15;1.20;;;;;;;;;;3388506;42;20117;-62
2022/09/11 06:55:34;;;;;;;3.60;1.17;;;;;;;;;;3389083;42;20130;-62
2022/09/11 06:58:01;;;;;;;3.78;1.10;;;;;;;;;;3380191;42;20091;-63
2022/09/11 07:00:27;;;;;;;3.42;1.10;;;;;;;;;;3383212;42;20083;-61
2022/09/11 07:02:53;;;;;;;4.53;1.40;;;;;;;;;;3384638;42;20079;-63
2022/09/11 07:05:21;;;;;;;6.15;1.10;;;;;;;;;;3374547;42;20545;-60
2022/09/11 07:07:49;;;;;;;4.60;1.20;;;;;;;;;;3369132;42;20150;-59
2022/09/11 07:10:15;;;;;;;4.95;1.20;;;;;;;;;;3384484;42;20146;-62
2022/09/11 07:12:41;;;;;;;5.70;1.42;;;;;;;;;;3384699;42;20156;-59
2022/09/11 07:15:08;;;;;;;5.53;1.52;;;;;;;;;;3385028;42;20167;-60
2022/09/11 07:17:35;;;;;;;5.70;1.50;;;;;;;;;;3385006;42;20113;-61
2022/09/11 07:20:03;;;;;;;5.10;1.70;;;;;;;;;;3381676;42;20111;-60
2022/09/11 07:22:30;;;;;;;5.60;1.77;;;;;;;;;;3381789;42;20090;-60
2022/09/11 07:24:56;;;;;;;5.93;2.00;;;;;;;;;;3384726;42;20146;-60
2022/09/11 07:27:22;;;;;;;5.80;1.98;;;;;;;;;;3384750;42;20102;-62
2022/09/11 07:29:48;;;;;;;5.93;1.77;;;;;;;;;;3373238;42;20096;-61
2022/09/11 07:32:14;;;;;;;6.03;2.00;;;;;;;;;;3380658;42;20109;-61
2022/09/11 07:34:40;;;;;;;4.57;1.60;;;;;;;;;;3381338;42;20588;-61
2022/09/11 07:37:06;;;;;;;4.75;1.50;;;;;;;;;;3383507;42;20226;-61
2022/09/11 07:39:32;;;;;;;4.80;1.60;;;;;;;;;;3381218;42;20087;-61
2022/09/11 07:41:58;;;;;;;4.82;1.70;;;;;;;;;;3383550;42;20103;-61
2022/09/11 07:44:24;;;;;;;4.88;1.70;;;;;;;;;;3391979;42;20511;-61
2022/09/11 07:46:50;;;;;;;4.85;1.60;;;;;;;;;;3382913;42;20596;-61
2022/09/11 07:49:16;;;;;;;6.20;1.50;;;;;;;;;;3392068;42;20484;-61
2022/09/11 07:51:42;;;;;;;4.93;1.80;;;;;;;;;;3393436;42;20101;-62
2022/09/11 07:54:09;;;;;;;4.95;1.65;;;;;;;;;;3384195;42;20109;-62
2022/09/11 07:56:35;;;;;;;6.10;1.98;;;;;;;;;;3393548;42;20124;-63
2022/09/11 07:59:01;;;;;;;6.50;1.80;;;;;;;;;;3394363;42;20090;-62
2022/09/11 08:01:29;;;;;;;12.10;1.90;;;;;;;;;;3370402;42;20091;-62
2022/09/11 08:03:57;;;;;;;5.15;1.60;;;;;;;;;;3393159;42;20163;-62
2022/09/11 08:06:23;;;;;;;5.07;1.70;;;;;;;;;;3393560;42;20101;-60
2022/09/11 08:08:53;;;;;;;5.45;1.70;;;;;;;;;;3375528;42;20217;-59
2022/09/11 08:11:19;;;;;;;10.80;2.40;;;;;;;;;;3384430;42;20090;-59
2022/09/11 08:13:52;;;;;;;9.03;1.80;;;;;;;;;;3393172;42;20194;-61
2022/09/11 08:16:19;;;;;;;9.18;2.15;;;;;;;;;;3384211;42;20102;-63
2022/09/11 08:18:45;;;;;;;6.88;2.05;;;;;;;;;;3393478;42;20098;-62
2022/09/11 08:21:11;;;;;;;6.70;2.13;;;;;;;;;;3393905;42;20086;-63
2022/09/11 08:23:42;;;;;;;5.20;1.95;;;;;;;;;;3384934;42;20121;-62
2022/09/11 08:26:09;;;;;;;9.53;2.17;;;;;;;;;;3376249;42;20110;-62
2022/09/11 08:28:36;;;;;;;5.60;2.20;;;;;;;;;;3391976;42;20599;-62
2022/09/11 08:31:02;;;;;;;5.70;2.10;;;;;;;;;;3383534;42;20181;-63
2022/09/11 08:33:28;;;;;;;6.68;2.05;;;;;;;;;;3384524;42;20090;-64
2022/09/11 08:35:56;;;;;;;6.30;1.88;;;;;;;;;;3382994;42;20095;-63
2022/09/11 08:38:23;;;;;;;8.00;2.00;;;;;;;;;;3382954;42;20124;-63
2022/09/11 08:40:49;;;;;;;7.68;1.85;;;;;;;;;;3393838;42;20675;-61
2022/09/11 08:43:22;;;;;;;7.53;1.92;;;;;;;;;;3393356;42;20109;-63
2022/09/11 08:45:48;;;;;;;8.27;1.90;;;;;;;;;;3392895;42;20187;-63
2022/09/11 08:48:14;;;;;;;5.60;1.60;;;;;;;;;;3375821;42;20087;-62
2022/09/11 08:50:42;;;;;;;6.20;1.90;;;;;;;;;;3392167;42;20150;-62
2022/09/11 08:53:26;;;;;;;5.90;1.50;;;;;;;;;;3383293;42;20614;-63
2022/09/11 08:55:58;;;;;;;4.68;1.60;;;;;;;;;;3383142;42;20752;-62
2022/09/11 08:58:43;;;;;;;6.05;1.60;;;;;;;;;;3376727;42;20658;-62
2022/09/11 09:01:30;;;;;;;5.03;1.52;;;;;;;;;;3393439;42;20129;-62
2022/09/11 09:04:05;;;;;;;4.00;1.30;;;;;;;;;;3392210;42;20164;-67
2022/09/11 09:06:47;;;;;;;6.03;1.60;;;;;;;;;;3383800;42;20078;-63
2022/09/11 09:09:25;;;;;;;5.57;1.60;;;;;;;;;;3375034;42;20079;-63
2022/09/11 09:12:19;;;;;;;8.85;1.90;;;;;;;;;;3392299;42;20171;-61
2022/09/11 09:15:24;;;;;;;7.13;1.60;;;;;;;;;;3383758;42;20086;-62
2022/09/11 09:17:59;;;;;;;6.27;1.53;;;;;;;;;;3386263;42;20094;-64
2022/09/11 09:20:34;;;;;;;4.93;1.50;;;;;;;;;;3386713;42;20188;-62
2022/09/11 09:23:10;;;;;;;4.40;1.33;;;;;;;;;;3378171;42;20644;-62
2022/09/11 09:25:37;;;;;;;4.40;1.40;;;;;;;;;;3389256;42;20141;-63
2022/09/11 09:28:28;;;;;;;4.15;1.45;;;;;;;;;;3381670;42;20141;-63
2022/09/11 09:30:58;;;;;;;4.70;1.37;;;;;;;;;;3387503;42;20097;-61
2022/09/11 09:33:50;;;;;;;4.00;1.20;;;;;;;;;;3388689;42;20191;-62
2022/09/11 09:36:21;;;;;;;4.43;1.40;;;;;;;;;;3392318;42;20164;-62
2022/09/11 09:38:48;;;;;;;4.43;1.40;;;;;;;;;;3383515;42;20090;-63
2022/09/11 09:41:51;;;;;;;4.68;1.50;;;;;;;;;;3392406;42;20102;-63
2022/09/11 09:44:29;;;;;;;4.80;1.53;;;;;;;;;;3392276;42;20157;-62
2022/09/11 09:46:55;;;;;;;6.03;1.88;;;;;;;;;;3382962;42;20141;-63
2022/09/11 09:49:25;;;;;;;6.10;1.80;;;;;;;;;;3391154;42;20082;-67
2022/09/11 09:51:55;;;;;;;7.00;1.85;;;;;;;;;;3392614;42;20087;-62
2022/09/11 09:54:25;;;;;;;6.13;1.98;;;;;;;;;;3383822;42;20662;-63
2022/09/11 09:57:17;;;;;;;5.10;1.80;;;;;;;;;;3375421;42;20113;-62
2022/09/11 10:00:08;;;;;;;6.78;1.95;;;;;;;;;;3380024;42;20138;-62
2022/09/11 10:02:43;;;;;;;7.35;2.03;;;;;;;;;;3392597;42;20094;-62
2022/09/11 10:05:26;;;;;;;6.40;1.90;;;;;;;;;;3377905;42;20134;-63
2022/09/11 10:07:53;;;;;;;5.53;2.03;;;;;;;;;;3391252;42;20117;-63
2022/09/11 10:10:36;;;;;;;6.33;2.10;;;;;;;;;;3385485;42;20130;-62
2022/09/11 10:13:23;;;;;;;5.97;2.05;;;;;;;;;;3384722;42;20557;-63
2022/09/11 10:15:50;;;;;;;5.60;2.08;;;;;;;;;;3385110;42;20098;-64
2022/09/11 10:18:31;;;;;;;9.10;2.20;;;;;;;;;;3385427;42;20155;-64
2022/09/11 10:21:13;;;;;;;5.47;2.20;;;;;;;;;;3395624;42;20566;-64
2022/09/11 10:23:56;;;;;;;9.20;2.03;;;;;;;;;;3383610;42;20097;-64
2022/09/11 10:26:53;;;;;;;7.90;2.22;;;;;;;;;;3374820;42;20576;-63
2022/09/11 10:29:23;;;;;;;5.57;1.90;;;;;;;;;;3384013;42;20090;-62
2022/09/11 10:31:50;;;;;;;7.97;2.10;;;;;;;;;;3383599;42;20094;-62
2022/09/11 10:34:21;;;;;;;6.43;2.10;;;;;;;;;;3381215;42;20101;-62
2022/09/11 10:37:00;;;;;;;7.27;1.90;;;;;;;;;;3393869;42;20113;-64
2022/09/11 10:39:27;;;;;;;8.35;2.08;;;;;;;;;;3385056;42;20094;-64
2022/09/11 10:41:55;;;;;;;5.80;2.30;;;;;;;;;;3370064;42;20087;-61
2022/09/11 10:44:21;;;;;;;7.32;2.72;;;;;;;;;;3381943;42;20224;-63
2022/09/11 10:47:13;;;;;;;6.60;2.17;;;;;;;;;;3384970;42;20098;-63
2022/09/11 10:49:39;;;;;;;5.40;1.83;;;;;;;;;;3388427;42;20559;-62
2022/09/11 10:52:08;;;;;;;5.57;1.83;;;;;;;;;;3374976;42;20560;-62
2022/09/11 10:54:52;;;;;;;5.35;1.70;;;;;;;;;;3393232;42;20124;-62
2022/09/11 10:57:27;;;;;;;6.57;1.92;;;;;;;;;;3394811;42;20102;-63
2022/09/11 11:00:15;;;;;;;7.15;1.85;;;;;;;;;;3394692;42;20078;-63
2022/09/11 11:02:45;;;;;;;5.73;1.80;;;;;;;;;;3393579;42;20093;-62
2022/09/11 11:05:44;;;;;;;6.25;1.90;;;;;;;;;;3393632;42;20117;-62
2022/09/11 11:08:12;;;;;;;5.43;1.80;;;;;;;;;;3372924;42;20082;-63
2022/09/11 11:10:44;;;;;;;8.23;2.00;;;;;;;;;;3396076;42;20085;-61
2022/09/11 11:13:19;;;;;;;6.15;1.80;;;;;;;;;;3392254;42;20129;-61
2022/09/11 11:15:45;;;;;;;5.93;2.17;;;;;;;;;;3393637;42;20134;-64
2022/09/11 11:18:39;;;;;;;6.53;2.10;;;;;;;;;;3394401;42;20191;-60
2022/09/11 11:21:20;;;;;;;5.47;2.20;;;;;;;;;;3393469;42;20635;-63
2022/09/11 11:24:31;;;;;;;7.35;2.30;;;;;;;;;;3392201;42;20112;-63
2022/09/11 11:27:15;;;;;;;6.13;2.10;;;;;;;;;;3352810;42;20436;-65
2022/09/11 11:29:55;;;;;;;7.07;2.20;;;;;;;;;;3361054;42;20092;-63
2022/09/11 11:32:42;;;;;;;6.30;2.50;;;;;;;;;;3378496;42;20477;-65
2022/09/11 11:35:14;;;;;;;7.10;2.33;;;;;;;;;;3378177;42;20205;-63
2022/09/11 11:37:41;;;;;;;5.43;2.10;;;;;;;;;;3379211;42;20122;-65
2022/09/11 11:40:36;;;;;;;10.65;2.20;;;;;;;;;;3389155;42;20167;-65
2022/09/11 11:43:10;;;;;;;7.07;1.97;;;;;;;;;;3378605;42;20133;-64
2022/09/11 11:45:44;;;;;;;5.90;1.95;;;;;;;;;;3387104;42;20121;-65
2022/09/11 11:48:20;;;;;;;9.40;2.08;;;;;;;;;;3387098;42;20090;-64
2022/09/11 11:50:51;;;;;;;5.95;1.85;;;;;;;;;;3391665;42;20653;-64
2022/09/11 11:53:28;;;;;;;6.00;1.80;;;;;;;;;;3377910;42;20170;-63
2022/09/11 11:56:10;;;;;;;7.00;2.03;;;;;;;;;;3376865;42;20473;-62
2022/09/11 11:58:38;;;;;;;5.95;1.67;;;;;;;;;;3383698;42;20079;-62
2022/09/11 12:01:08;;;;;;;5.68;1.60;;;;;;;;;;3383285;42;20078;-64
2022/09/11 12:03:49;;;;;;;4.93;1.60;;;;;;;;;;3383807;42;20083;-63
2022/09/11 12:06:15;;;;;;;7.65;1.52;;;;;;;;;;3384973;42;20142;-64
2022/09/11 12:08:43;;;;;;;7.77;1.90;;;;;;;;;;3379936;42;20082;-61
2022/09/11 12:11:09;;;;;;;7.22;2.00;;;;;;;;;;3388173;42;20078;-63
2022/09/11 12:13:36;;;;;;;5.65;1.90;;;;;;;;;;3378218;42;20138;-63
2022/09/11 12:16:05;;;;;;;7.25;1.98;;;;;;;;;;3387137;42;20590;-63
2022/09/11 12:18:31;;;;;;;9.75;2.05;;;;;;;;;;3387488;42;20160;-61
2022/09/11 12:21:30;;;;;;;7.17;1.70;;;;;;;;;;3379849;42;20082;-64
2022/09/11 12:23:56;;;;;;;5.95;1.70;;;;;;;;;;3387206;42;20098;-64
2022/09/11 12:26:23;;;;;;;5.60;1.65;;;;;;;;;;3396975;42;20498;-63
2022/09/11 12:29:08;;;;;;;5.05;1.73;;;;;;;;;;3395827;42;20754;-61
2022/09/11 12:31:49;;;;;;;8.33;1.90;;;;;;;;;;3387100;42;20175;-62
2022/09/11 12:34:22;;;;;;;6.07;1.83;;;;;;;;;;3394205;42;20124;-61
2022/09/11 12:36:52;;;;;;;5.65;1.63;;;;;;;;;;3387842;42;20093;-62
2022/09/11 12:39:34;;;;;;;5.30;1.80;;;;;;;;;;3397233;42;20556;-63
2022/09/11 12:42:22;;;;;;;6.20;1.73;;;;;;;;;;3387414;42;20105;-59
2022/09/11 12:44:47;;;;;;;6.77;2.13;;;;;;;;;;3386151;42;20109;-60
2022/09/11 12:47:22;;;;;;;5.80;1.98;;;;;;;;;;3388457;42;20339;-64
2022/09/11 12:49:53;;;;;;;6.43;1.55;;;;;;;;;;3389052;42;20904;-62
2022/09/11 12:52:26;;;;;;;6.13;2.10;;;;;;;;;;3386491;42;20079;-61
2022/09/11 12:54:52;;;;;;;6.73;2.10;;;;;;;;;;3378902;42;20098;-60
2022/09/11 12:57:27;;;;;;;6.53;2.00;;;;;;;;;;3387438;42;20197;-62
2022/09/11 12:59:55;;;;;;;7.45;2.70;;;;;;;;;;3386554;42;20154;-61
2022/09/11 13:02:37;;;;;;;9.07;2.25;;;;;;;;;;3387710;42;20112;-63
2022/09/11 13:05:04;;;;;;;7.20;2.42;;;;;;;;;;3371647;42;20473;-62
2022/09/11 13:07:44;;;;;;;6.27;2.20;;;;;;;;;;3378335;42;20086;-61
2022/09/11 13:10:42;;;;;;;6.63;2.05;;;;;;;;;;3374395;42;20121;-62
2022/09/11 13:13:39;;;;;;;7.80;2.13;;;;;;;;;;3378039;42;20095;-62
2022/09/11 13:16:25;;;;;;;5.60;2.10;;;;;;;;;;3392699;42;20102;-61
2022/09/11 13:19:22;;;;;;;7.65;2.40;;;;;;;;;;3381838;42;20088;-64
2022/09/11 13:21:50;;;;;;;6.57;2.17;;;;;;;;;;3392720;42;20102;-60
2022/09/11 13:24:25;;;;;;;5.57;1.90;;;;;;;;;;3382203;42;20090;-59
2022/09/11 13:26:54;;;;;;;6.85;2.20;;;;;;;;;;3390702;42;20189;-63
2022/09/11 13:29:21;;;;;;;6.53;2.00;;;;;;;;;;3374753;42;20094;-59
2022/09/11 13:31:48;;;;;;;9.30;2.33;;;;;;;;;;3390444;42;20171;-61
2022/09/11 13:34:16;;;;;;;5.87;2.00;;;;;;;;;;3383423;42;20090;-60
2022/09/11 13:36:42;;;;;;;5.20;1.90;;;;;;;;;;3377412;42;20082;-59
2022/09/11 13:39:08;;;;;;;9.48;2.20;;;;;;;;;;3382073;42;20508;-59
2022/09/11 13:41:39;;;;;;;5.05;1.83;;;;;;;;;;3375724;42;20082;-60
2022/09/11 13:44:22;;;;;;;5.50;1.88;;;;;;;;;;3365812;42;20099;-59
2022/09/11 13:46:50;;;;;;;5.50;1.93;;;;;;;;;;3382416;42;20529;-59
2022/09/11 13:49:16;;;;;;;8.18;2.10;;;;;;;;;;3383453;42;20114;-60
2022/09/11 13:51:43;;;;;;;5.82;2.25;;;;;;;;;;3382085;42;20095;-60
2022/09/11 13:54:37;;;;;;;8.05;3.10;;;;;;;;;;3372905;42;20188;-61
2022/09/11 13:57:03;;;;;;;9.70;2.40;;;;;;;;;;3378391;42;20121;-60
2022/09/11 13:59:55;;;;;;;8.53;2.70;;;;;;;;;;3384804;42;20078;-59
2022/09/11 14:02:43;;;;;;;8.55;2.22;;;;;;;;;;3383802;42;20550;-59
2022/09/11 14:05:15;;;;;;;9.02;2.00;;;;;;;;;;3382040;42;20569;-63
2022/09/11 14:07:57;;;;;;;5.72;1.92;;;;;;;;;;3383048;42;20572;-62
2022/09/11 14:10:28;;;;;;;5.93;2.00;;;;;;;;;;3377769;42;20098;-61
2022/09/11 14:13:09;;;;;;;6.50;2.00;;;;;;;;;;3383421;42;20117;-61
2022/09/11 14:15:38;;;;;;;7.40;2.50;;;;;;;;;;3386193;42;20095;-58
2022/09/11 14:18:10;;;;;;;5.82;1.98;;;;;;;;;;3388652;42;20091;-61
2022/09/11 14:20:38;;;;;;;7.13;2.10;;;;;;;;;;3378732;42;20146;-60
2022/09/11 14:23:04;;;;;;;6.20;2.40;;;;;;;;;;3378661;42;20146;-60
2022/09/11 14:25:31;;;;;;;7.67;2.50;;;;;;;;;;3378061;42;20630;-59
2022/09/11 14:27:57;;;;;;;7.20;2.20;;;;;;;;;;3387628;42;20130;-62
2022/09/11 14:30:31;;;;;;;6.03;2.05;;;;;;;;;;3377257;42;20117;-63
2022/09/11 14:33:15;;;;;;;7.25;2.20;;;;;;;;;;3377508;42;20091;-61
2022/09/11 14:35:41;;;;;;;6.15;2.00;;;;;;;;;;3385059;42;20082;-62
2022/09/11 14:38:09;;;;;;;6.00;2.20;;;;;;;;;;3377728;42;20090;-63
2022/09/11 14:40:35;;;;;;;6.75;2.10;;;;;;;;;;3377516;42;20098;-61
2022/09/11 14:43:02;;;;;;;7.43;2.20;;;;;;;;;;3388274;42;20098;-62
2022/09/11 14:45:30;;;;;;;8.02;2.00;;;;;;;;;;3387360;42;20176;-62
2022/09/11 14:47:56;;;;;;;6.28;2.10;;;;;;;;;;3396570;42;20169;-61
2022/09/11 14:50:23;;;;;;;5.80;1.90;;;;;;;;;;3397420;42;20171;-62
2022/09/11 14:52:49;;;;;;;5.60;2.00;;;;;;;;;;3385366;42;20078;-62
2022/09/11 14:55:16;;;;;;;6.63;1.95;;;;;;;;;;3394012;42;20553;-62
2022/09/11 14:57:43;;;;;;;5.32;1.90;;;;;;;;;;3383633;42;20569;-63
2022/09/11 15:00:12;;;;;;;8.60;2.00;;;;;;;;;;3392279;42;20152;-63
2022/09/11 15:02:38;;;;;;;5.63;1.90;;;;;;;;;;3383018;42;20726;-66
2022/09/11 15:05:06;;;;;;;9.20;1.80;;;;;;;;;;3392721;42;20264;-63
2022/09/11 15:07:35;;;;;;;7.25;1.80;;;;;;;;;;3376108;42;20091;-63
2022/09/11 15:10:01;;;;;;;6.63;2.15;;;;;;;;;;3384119;42;20167;-63